Time;durP1;ratioP1;P1;durP2;ratioP2;P2;SDS_P1;SDS_P2;PMS_P1;PMS_P2;Temp;Humidity;BMP_temperature;BMP_pressure;BME280_temperature;BME280_humidity;BME280_pressure;Samples;Min_cycle;Max_cycle;Signal;HPM_P1;HPM_P2
2021/04/19 00:00:07;;;;;;;;;;;;;;;17.70;44.01;100125.94;4442507;32;32816;-90
2021/04/19 00:02:35;;;;;;;;;;;;;;;18.07;43.19;100115.19;4455800;32;32971;-90
2021/04/19 00:05:04;;;;;;;;;;;;;;;17.87;43.94;100126.81;4455924;32;33663;-90
2021/04/19 00:07:31;;;;;;;;;;;;;;;18.09;43.29;100110.66;4442793;32;32046;-90
2021/04/19 00:09:59;;;;;;;;;;;;;;;17.71;44.07;100111.00;4443003;32;34120;-89
2021/04/19 00:12:26;;;;;;;;;;;;;;;17.61;44.48;100110.63;4455222;32;34049;-90
2021/04/19 00:14:53;;;;;;;;;;;;;;;17.14;45.70;100112.25;4442626;32;32765;-89
2021/04/19 00:17:21;;;;;;;;;;;;;;;16.94;46.56;100109.78;4442497;32;32241;-90
2021/04/19 00:19:48;;;;;;;;;;;;;;;16.51;47.64;100103.16;4455230;32;34685;-90
2021/04/19 00:22:15;;;;;;;;;;;;;;;16.42;47.92;100102.72;4442273;32;33007;-89
2021/04/19 00:24:44;;;;;;;;;;;;;;;16.22;48.49;100101.06;4444135;32;33020;-90
2021/04/19 00:27:11;;;;;;;;;;;;;;;16.43;48.31;100099.19;4457001;32;34052;-89
2021/04/19 00:29:38;;;;;;;;;;;;;;;16.65;47.80;100107.69;4456966;32;34214;-89
2021/04/19 00:32:07;;;;;;;;;;;;;;;16.80;46.97;100105.22;4470017;32;34082;-89
2021/04/19 00:34:34;;;;;;;;;;;;;;;16.99;46.46;100102.50;4457213;32;33160;-89
2021/04/19 00:37:01;;;;;;;;;;;;;;;16.83;46.93;100097.16;4457108;32;33378;-89
2021/04/19 00:39:30;;;;;;;;;;;;;;;17.06;46.04;100096.03;4457222;32;33515;-90
2021/04/19 00:41:57;;;;;;;;;;;;;;;16.76;46.86;100101.87;4442755;32;33189;-89
2021/04/19 00:44:24;;;;;;;;;;;;;;;16.53;47.62;100100.44;4455656;32;33271;-89
2021/04/19 00:46:52;;;;;;;;;;;;;;;16.38;48.07;100088.91;4442540;32;32190;-90
2021/04/19 00:49:21;;;;;;;;;;;;;;;16.30;48.18;100093.66;4455060;32;33633;-89
2021/04/19 00:51:49;;;;;;;;;;;;;;;16.57;47.61;100091.47;4455154;32;34495;-89
2021/04/19 00:54:16;;;;;;;;;;;;;;;16.28;48.20;100088.47;4467880;32;34415;-90
2021/04/19 00:56:43;;;;;;;;;;;;;;;16.84;46.70;100085.72;4442146;32;33269;-89
2021/04/19 00:59:10;;;;;;;;;;;;;;;17.13;45.98;100086.00;4467963;32;34949;-90
2021/04/19 01:01:38;;;;;;;;;;;;;;;17.22;45.64;100085.53;4454878;32;32950;-89
2021/04/19 01:04:05;;;;;;;;;;;;;;;17.39;45.24;100083.75;4429615;32;32811;-90
2021/04/19 01:06:34;;;;;;;;;;;;;;;17.62;44.54;100091.28;4442556;32;32390;-89
2021/04/19 01:09:03;;;;;;;;;;;;;;;17.45;44.82;100089.53;4455058;32;34630;-89
2021/04/19 01:11:30;;;;;;;;;;;;;;;17.56;44.62;100088.97;4455056;32;34298;-90
2021/04/19 01:13:59;;;;;;;;;;;;;;;17.73;44.07;100087.22;4455273;32;34719;-89
2021/04/19 01:16:27;;;;;;;;;;;;;;;17.65;44.13;100085.81;4455114;32;31902;-90
2021/04/19 01:18:57;;;;;;;;;;;;;;;17.50;44.20;100078.78;4456490;32;33468;-88
2021/04/19 01:21:27;;;;;;;;;;;;;;;17.65;44.12;100084.97;4462856;32;32913;-89
2021/04/19 01:23:55;;;;;;;;;;;;;;;16.76;46.51;100083.47;4462961;32;34699;-89
2021/04/19 01:26:22;;;;;;;;;;;;;;;16.36;47.31;100088.94;4437584;32;31978;-89
2021/04/19 01:28:52;;;;;;;;;;;;;;;16.21;48.19;100089.72;4459933;32;33545;-89
2021/04/19 01:31:20;;;;;;;;;;;;;;;16.76;46.75;100082.62;4442896;32;33276;-89
2021/04/19 01:33:48;;;;;;;;;;;;;;;16.87;46.47;100082.91;4443089;32;33218;-89
2021/04/19 01:36:15;;;;;;;;;;;;;;;16.55;47.28;100076.69;4430577;32;31926;-89
2021/04/19 01:38:44;;;;;;;;;;;;;;;15.83;49.12;100081.91;4443051;32;32882;-89
2021/04/19 01:41:11;;;;;;;;;;;;;;;15.99;48.95;100080.25;4455529;32;33562;-88
2021/04/19 01:43:38;;;;;;;;;;;;;;;16.19;48.55;100083.69;4454822;32;32951;-89
2021/04/19 01:46:06;;;;;;;;;;;;;;;16.02;48.88;100085.34;4442179;32;32212;-90
2021/04/19 01:48:34;;;;;;;;;;;;;;;15.98;49.18;100080.31;4441917;32;33850;-89
2021/04/19 01:51:03;;;;;;;;;;;;;;;15.90;49.42;100074.56;4455169;32;33223;-89
2021/04/19 01:53:33;;;;;;;;;;;;;;;15.40;50.75;100079.47;4442531;32;34039;-88
2021/04/19 01:56:02;;;;;;;;;;;;;;;16.18;48.68;100079.34;4442111;32;32183;-89
2021/04/19 01:58:32;;;;;;;;;;;;;;;15.74;49.68;100075.28;4454689;32;32903;-88
2021/04/19 02:01:01;;;;;;;;;;;;;;;15.86;49.35;100084.37;4440824;32;34099;-89
2021/04/19 02:03:33;;;;;;;;;;;;;;;15.62;50.09;100081.09;4455028;32;33928;-89
2021/04/19 02:06:10;;;;;;;;;;;;;;;15.94;49.24;100076.12;4454527;32;32145;-88
2021/04/19 02:08:58;;;;;;;;;;;;;;;15.85;49.33;100082.69;4429166;32;32691;-89
2021/04/19 02:11:29;;;;;;;;;;;;;;;15.48;50.38;100082.59;4454561;32;33647;-88
2021/04/19 02:14:24;;;;;;;;;;;;;;;15.50;50.69;100082.50;4467358;32;33854;-89
2021/04/19 02:17:11;;;;;;;;;;;;;;;16.32;48.43;100082.16;4431533;32;31846;-89
2021/04/19 02:19:41;;;;;;;;;;;;;;;16.10;48.71;100079.75;4468940;32;33664;-89
2021/04/19 02:22:18;;;;;;;;;;;;;;;16.51;47.69;100083.84;4454939;32;33027;-89
2021/04/19 02:24:47;;;;;;;;;;;;;;;16.46;47.53;100083.22;4468611;32;33225;-90
2021/04/19 02:27:21;;;;;;;;;;;;;;;16.70;46.92;100075.91;4454625;32;33091;-89
2021/04/19 02:29:55;;;;;;;;;;;;;;;17.09;46.08;100071.31;4443367;32;34094;-89
2021/04/19 02:32:27;;;;;;;;;;;;;;;16.47;47.56;100074.44;4428827;32;32660;-89
2021/04/19 02:34:57;;;;;;;;;;;;;;;16.65;47.21;100068.25;4441631;32;32500;-89
2021/04/19 02:37:25;;;;;;;;;;;;;;;16.50;47.73;100066.41;4454475;32;33094;-89
2021/04/19 02:39:52;;;;;;;;;;;;;;;16.42;47.67;100079.94;4441380;32;33796;-89
2021/04/19 02:42:20;;;;;;;;;;;;;;;16.81;47.00;100072.72;4454330;32;32935;-89
2021/04/19 02:44:48;;;;;;;;;;;;;;;16.13;48.60;100074.31;4454323;32;33733;-90
2021/04/19 02:47:16;;;;;;;;;;;;;;;16.25;48.29;100070.25;4441716;32;32326;-89
2021/04/19 02:49:47;;;;;;;;;;;;;;;16.29;48.45;100066.53;4467373;32;33509;-88
2021/04/19 02:52:15;;;;;;;;;;;;;;;16.44;47.76;100067.53;4454206;32;34966;-90
2021/04/19 02:54:43;;;;;;;;;;;;;;;16.38;47.86;100070.50;4454145;32;33959;-89
2021/04/19 02:57:15;;;;;;;;;;;;;;;16.30;48.30;100065.62;4441401;32;33313;-89
2021/04/19 02:59:42;;;;;;;;;;;;;;;16.23;48.62;100066.81;4441163;32;33818;-89
2021/04/19 03:02:10;;;;;;;;;;;;;;;15.55;50.33;100058.69;4441304;32;32827;-89
2021/04/19 03:04:38;;;;;;;;;;;;;;;15.47;50.56;100056.41;4441424;32;33749;-90
2021/04/19 03:07:07;;;;;;;;;;;;;;;16.13;48.81;100063.81;4467092;32;33109;-89
2021/04/19 03:09:37;;;;;;;;;;;;;;;15.78;49.56;100068.09;4430458;32;34017;-89
2021/04/19 03:12:05;;;;;;;;;;;;;;;16.70;47.35;100057.50;4430632;32;32917;-90
2021/04/19 03:14:34;;;;;;;;;;;;;;;16.28;48.24;100064.81;4451297;32;33830;-90
2021/04/19 03:17:04;;;;;;;;;;;;;;;17.01;46.53;100056.75;4451833;32;32080;-90
2021/04/19 03:19:36;;;;;;;;;;;;;;;16.24;48.37;100063.28;4447317;32;34050;-89
2021/04/19 03:22:04;;;;;;;;;;;;;;;15.70;50.01;100064.06;4445051;32;33859;-90
2021/04/19 03:24:32;;;;;;;;;;;;;;;15.00;52.02;100066.34;4457056;32;34818;-89
2021/04/19 03:27:00;;;;;;;;;;;;;;;15.22;51.53;100064.53;4429694;32;32395;-89
2021/04/19 03:29:28;;;;;;;;;;;;;;;15.29;51.01;100061.59;4456213;32;32854;-89
2021/04/19 03:31:56;;;;;;;;;;;;;;;16.12;48.83;100061.25;4455676;32;33767;-89
2021/04/19 03:34:26;;;;;;;;;;;;;;;15.92;49.19;100067.47;4428212;32;33374;-89
2021/04/19 03:37:15;;;;;;;;;;;;;;;15.38;50.64;100072.56;4453775;32;32711;-89
2021/04/19 03:39:44;;;;;;;;;;;;;;;15.27;51.23;100060.78;4453573;32;35315;-89
2021/04/19 03:42:12;;;;;;;;;;;;;;;15.18;51.07;100072.56;4440965;32;34367;-89
2021/04/19 03:44:39;;;;;;;;;;;;;;;15.50;50.62;100061.50;4440505;32;32748;-90
2021/04/19 03:47:09;;;;;;;;;;;;;;;14.98;51.87;100062.97;4427977;32;32493;-89
2021/04/19 03:49:47;;;;;;;;;;;;;;;15.14;51.38;100062.25;4466239;32;34041;-89
2021/04/19 03:52:17;;;;;;;;;;;;;;;15.68;50.09;100070.31;4441059;32;32978;-89
2021/04/19 03:54:49;;;;;;;;;;;;;;;15.68;50.23;100068.53;4453447;32;33567;-89
2021/04/19 03:57:18;;;;;;;;;;;;;;;14.95;52.33;100068.31;4440689;32;32912;-90
2021/04/19 03:59:48;;;;;;;;;;;;;;;15.82;49.87;100067.06;4440432;32;33663;-90
2021/04/19 04:02:17;;;;;;;;;;;;;;;15.89;49.54;100065.84;4441237;32;32840;-89
2021/04/19 04:04:46;;;;;;;;;;;;;;;16.17;49.12;100064.53;4440646;32;32814;-89
2021/04/19 04:07:14;;;;;;;;;;;;;;;15.86;49.86;100071.22;4453062;32;33122;-89
2021/04/19 04:09:42;;;;;;;;;;;;;;;15.78;49.78;100066.34;4452973;32;33733;-89
2021/04/19 04:12:12;;;;;;;;;;;;;;;16.04;48.77;100064.25;4453065;32;34100;-89
2021/04/19 04:14:51;;;;;;;;;;;;;;;14.93;52.00;100075.44;4453624;32;34594;-89
2021/04/19 04:17:20;;;;;;;;;;;;;;;15.83;49.23;100067.00;4453165;32;33765;-90
2021/04/19 04:19:49;;;;;;;;;;;;;;;16.12;48.14;100069.16;4440532;32;34540;-89
2021/04/19 04:22:18;;;;;;;;;;;;;;;15.43;49.67;100078.47;4452859;32;34027;-89
2021/04/19 04:24:47;;;;;;;;;;;;;;;15.44;50.05;100074.94;4466535;32;33939;-89
2021/04/19 04:27:17;;;;;;;;;;;;;;;15.69;49.35;100075.50;4442885;32;32189;-90
2021/04/19 04:29:44;;;;;;;;;;;;;;;15.94;48.29;100073.50;4454907;32;32908;-90
2021/04/19 04:32:13;;;;;;;;;;;;;;;15.24;50.30;100075.84;4442643;32;33115;-89
2021/04/19 04:34:41;;;;;;;;;;;;;;;15.20;50.77;100075.13;4455270;32;34161;-89
2021/04/19 04:37:09;;;;;;;;;;;;;;;15.93;48.90;100079.66;4455249;32;32472;-89
2021/04/19 04:39:38;;;;;;;;;;;;;;;16.28;47.30;100082.38;4429829;32;33970;-90
2021/04/19 04:42:09;;;;;;;;;;;;;;;16.15;47.13;100076.88;4468039;32;34039;-89
2021/04/19 04:44:37;;;;;;;;;;;;;;;16.26;46.81;100076.34;4455326;32;32914;-89
2021/04/19 04:47:28;;;;;;;;;;;;;;;16.80;45.45;100086.81;4442242;32;33015;-90
2021/04/19 04:49:58;;;;;;;;;;;;;;;16.74;45.69;100085.34;4458525;32;33633;-90
2021/04/19 04:52:26;;;;;;;;;;;;;;;16.75;46.05;100079.16;4468216;32;33925;-90
2021/04/19 04:54:53;;;;;;;;;;;;;;;15.87;48.22;100075.56;4442975;32;32481;-89
2021/04/19 04:57:21;;;;;;;;;;;;;;;15.57;49.07;100081.31;4443240;32;32073;-89
2021/04/19 04:59:49;;;;;;;;;;;;;;;16.67;45.95;100083.94;4444023;32;34231;-89
2021/04/19 05:02:20;;;;;;;;;;;;;;;16.44;46.47;100079.84;4443061;32;32973;-89
2021/04/19 05:04:49;;;;;;;;;;;;;;;16.43;46.95;100088.66;4455795;32;33629;-89
2021/04/19 05:07:16;;;;;;;;;;;;;;;15.86;48.65;100084.37;4456299;32;32985;-89
2021/04/19 05:09:47;;;;;;;;;;;;;;;16.08;47.71;100078.94;4454865;32;32192;-89
2021/04/19 05:12:15;;;;;;;;;;;;;;;16.14;47.46;100088.31;4454739;32;33236;-90
2021/04/19 05:14:55;;;;;;;;;;;;;;;17.06;45.07;100082.84;4454730;32;33326;-89
2021/04/19 05:17:22;;;;;;;;;;;;;;;16.65;45.88;100083.19;4441905;32;33151;-89
2021/04/19 05:19:50;;;;;;;;;;;;;;;16.36;46.00;100086.31;4454274;32;34298;-89
2021/04/19 05:22:18;;;;;;;;;;;;;;;15.97;47.29;100087.34;4443131;32;33877;-89
2021/04/19 05:24:46;;;;;;;;;;;;;;;16.13;46.60;100076.09;4455544;32;32936;-90
2021/04/19 05:27:14;;;;;;;;;;;;;;;16.31;46.33;100088.34;4442299;32;32322;-91
2021/04/19 05:29:42;;;;;;;;;;;;;;;15.83;47.76;100090.66;4458548;32;32781;-95
2021/04/19 05:32:30;;;;;;;;;;;;;;;15.16;50.53;100086.69;4459576;32;33518;-91
2021/04/19 05:35:00;;;;;;;;;;;;;;;15.17;50.83;100086.59;4456415;32;33534;-91
2021/04/19 05:37:30;;;;;;;;;;;;;;;15.90;48.99;100085.09;4457145;32;32005;-90
2021/04/19 05:39:57;;;;;;;;;;;;;;;16.58;46.76;100082.62;4443395;32;32821;-92
2021/04/19 05:42:24;;;;;;;;;;;;;;;16.84;45.65;100085.72;4443192;32;33943;-93
2021/04/19 05:44:53;;;;;;;;;;;;;;;16.97;45.39;100089.44;4444569;32;34430;-94
2021/04/19 05:47:47;;;;;;;;;;;;;;;17.20;44.72;100090.00;4456805;32;33933;-91
2021/04/19 05:53:12;;;;;;;;;;;;;;;17.26;44.85;100086.22;4426529;32;33174;-92
2021/04/19 05:55:41;;;;;;;;;;;;;;;17.40;44.52;100090.75;4399556;32;33494;-92
2021/04/19 05:58:09;;;;;;;;;;;;;;;17.40;44.38;100090.75;4413114;32;32852;-93
2021/04/19 06:00:37;;;;;;;;;;;;;;;17.50;44.19;100090.16;4412755;32;33214;-93
2021/04/19 06:03:23;;;;;;;;;;;;;;;16.99;46.35;100092.84;4412476;32;33650;-92
2021/04/19 06:06:04;;;;;;;;;;;;;;;17.55;44.80;100086.41;4412326;32;32797;-94
2021/04/19 06:08:35;;;;;;;;;;;;;;;17.62;44.11;100088.63;4412582;32;32363;-93
2021/04/19 06:11:08;;;;;;;;;;;;;;;18.03;43.25;100090.78;4398893;32;33057;-93
2021/04/19 06:13:40;;;;;;;;;;;;;;;18.08;42.99;100087.91;4411856;32;34517;-92
2021/04/19 06:16:07;;;;;;;;;;;;;;;18.19;42.97;100089.94;4413359;32;33510;-94
2021/04/19 06:18:38;;;;;;;;;;;;;;;18.30;42.50;100084.03;4413293;32;33597;-94
2021/04/19 06:21:07;;;;;;;;;;;;;;;18.32;42.14;100087.41;4400572;32;33226;-93
2021/04/19 06:23:34;;;;;;;;;;;;;;;18.41;42.41;100088.69;4399311;32;33180;-91
2021/04/19 06:26:07;;;;;;;;;;;;;;;18.39;42.99;100088.78;4400764;32;32761;-91
2021/04/19 06:28:36;;;;;;;;;;;;;;;18.18;42.77;100093.50;4411060;32;33067;-94
2021/04/19 06:31:27;;;;;;;;;;;;;;;18.21;42.95;100087.19;4415632;32;34819;-91
2021/04/19 06:34:12;;;;;;;;;;;;;;;18.54;41.91;100087.03;4405458;32;32914;-95
2021/04/19 06:37:21;;;;;;;;;;;;;;;18.21;42.28;100090.66;5115545;27;19968;-96
2021/04/19 06:40:14;;;;;;;;;;;;;;;18.39;42.31;100082.62;4432399;27;20048;-94
2021/04/19 06:43:05;;;;;;;;;;;;;;;18.34;41.91;100090.81;4375231;32;32671;-89
2021/04/19 06:48:54;;;;;;;;;;;;;;;18.41;42.61;100089.53;4376802;32;33818;-94
2021/04/19 06:51:44;;;;;;;;;;;;;;;18.45;42.74;100088.41;4360470;32;32639;-93
2021/04/19 06:54:28;;;;;;;;;;;;;;;18.57;42.17;100096.56;4366300;32;33827;-96
2021/04/19 06:57:28;;;;;;;;;;;;;;;18.52;42.01;100096.81;4628234;27;19990;-96
2021/04/19 07:12:26;;;;;;;;;;;;;;;18.25;42.12;100081.63;4348754;27;19992;-93
2021/04/19 07:15:12;;;;;;;;;;;;;;;18.10;42.54;100085.19;4304529;33;34560;-94
2021/04/19 07:18:05;;;;;;;;;;;;;;;18.15;42.63;100083.97;4256933;33;34750;-96
2021/04/19 07:21:13;;;;;;;;;;;;;;;18.36;42.22;100079.25;4449858;27;20169;-86
2021/04/19 07:23:44;;;;;;;;;;;;;;;18.73;41.98;100080.66;4284645;33;32643;-84
2021/04/19 07:26:17;;;;;;;;;;;;;;;18.41;42.81;100083.41;4272953;33;33743;-84
2021/04/19 07:28:57;;;;;;;;;;;;;;;18.63;41.35;100081.19;4285147;33;32437;-85
2021/04/19 07:31:44;;;;;;;;;;;;;;;17.49;43.54;100077.06;4298520;33;34695;-85
2021/04/19 07:34:17;;;;;;;;;;;;;;;18.42;42.22;100080.69;4301873;33;32562;-84
2021/04/19 07:36:50;;;;;;;;;;;;;;;17.87;44.15;100080.22;4303459;33;33172;-85
2021/04/19 07:39:37;;;;;;;;;;;;;;;18.42;43.04;100069.28;4289230;33;34734;-85
2021/04/19 07:42:08;;;;;;;;;;;;;;;18.21;41.50;100069.56;4288742;33;33203;-85
2021/04/19 07:45:04;;;;;;;;;;;;;;;18.66;41.06;100074.91;4300377;33;33953;-85
2021/04/19 07:47:31;;;;;;;;;;;;;;;18.66;41.43;100070.47;4289849;33;33066;-86
2021/04/19 07:50:23;;;;;;;;;;;;;;;18.50;42.24;100059.12;4305572;33;33968;-85
2021/04/19 07:53:04;;;;;;;;;;;;;;;18.99;41.16;100079.12;4301888;33;33639;-85
2021/04/19 07:55:52;;;;;;;;;;;;;;;19.13;39.43;100063.28;4300086;33;35380;-85
2021/04/19 07:58:28;;;;;;;;;;;;;;;18.86;40.83;100068.41;4311912;33;34061;-84
2021/04/19 08:01:03;;;;;;;;;;;;;;;19.23;40.26;100065.38;4315015;33;33444;-83
2021/04/19 08:03:40;;;;;;;;;;;;;;;19.41;38.79;100060.72;4303701;33;33450;-85
2021/04/19 08:06:20;;;;;;;;;;;;;;;19.43;38.85;100062.31;4304454;33;33753;-84
2021/04/19 08:08:51;;;;;;;;;;;;;;;19.29;38.47;100057.91;4314849;33;33895;-84
2021/04/19 08:11:21;;;;;;;;;;;;;;;19.50;38.86;100058.38;4304887;33;34606;-85
2021/04/19 08:13:48;;;;;;;;;;;;;;;19.54;39.45;100053.72;4306439;33;34110;-85
2021/04/19 08:16:20;;;;;;;;;;;;;;;19.40;39.34;100051.94;4314569;33;34427;-86
2021/04/19 08:19:02;;;;;;;;;;;;;;;19.63;38.95;100058.41;4313515;33;33550;-86
2021/04/19 08:21:30;;;;;;;;;;;;;;;19.52;40.50;100066.19;4302401;33;34632;-85
2021/04/19 08:24:17;;;;;;;;;;;;;;;19.59;40.14;100062.19;4303064;33;35301;-86
2021/04/19 08:26:56;;;;;;;;;;;;;;;19.38;39.19;100058.28;4313563;33;34651;-86
2021/04/19 08:29:35;;;;;;;;;;;;;;;19.93;38.70;100052.12;4302589;33;31815;-87
2021/04/19 08:32:30;;;;;;;;;;;;;;;19.79;38.73;100057.44;4314507;33;33315;-86
2021/04/19 08:35:00;;;;;;;;;;;;;;;19.25;39.95;100056.41;4314629;33;33889;-86
2021/04/19 08:37:29;;;;;;;;;;;;;;;19.39;40.55;100054.69;4302551;33;34149;-86
2021/04/19 08:40:01;;;;;;;;;;;;;;;19.60;39.99;100055.97;4302485;33;32726;-85
2021/04/19 08:42:36;;;;;;;;;;;;;;;19.29;39.99;100057.91;4302794;33;33966;-84
2021/04/19 08:45:04;;;;;;;;;;;;;;;19.50;39.67;100057.50;4314075;33;34153;-85
2021/04/19 08:47:35;;;;;;;;;;;;;;;19.67;38.36;100049.34;4315460;33;34457;-84
2021/04/19 08:50:05;;;;;;;;;;;;;;;20.03;38.31;100055.03;4291240;33;32424;-84
2021/04/19 08:52:33;;;;;;;;;;;;;;;20.26;38.31;100056.16;4302466;33;33484;-87
2021/04/19 08:55:06;;;;;;;;;;;;;;;20.10;38.16;100058.97;4314397;33;32727;-85
2021/04/19 08:57:34;;;;;;;;;;;;;;;20.36;38.01;100061.69;4314335;33;34546;-87
2021/04/19 09:00:04;;;;;;;;;;;;;;;19.73;40.16;100053.41;4314113;33;33814;-86
2021/04/19 09:02:37;;;;;;;;;;;;;;;19.92;39.57;100053.09;4314151;33;34896;-86
2021/04/19 09:05:19;;;;;;;;;;;;;;;19.39;40.02;100060.81;4302771;33;34199;-85
2021/04/19 09:08:00;;;;;;;;;;;;;;;20.29;38.63;100057.72;4302679;33;34921;-86
2021/04/19 09:14:05;;;;;;;;;;;;;;;20.41;37.89;100056.06;4303511;33;33805;-86
2021/04/19 09:17:02;;;;;;;;;;;;;;;20.53;37.67;100053.44;4312853;33;34854;-85
2021/04/19 09:19:38;;;;;;;;;;;;;;;20.24;38.21;100054.56;4303343;33;32757;-87
2021/04/19 09:22:10;;;;;;;;;;;;;;;20.42;37.71;100057.78;4303828;33;32186;-88
2021/04/19 09:25:07;;;;;;;;;;;;;;;20.24;37.47;100058.06;4314901;33;33989;-88
2021/04/19 09:28:03;;;;;;;;;;;;;;;20.63;37.33;100052.81;4302512;33;33985;-86
2021/04/19 09:30:36;;;;;;;;;;;;;;;20.65;37.81;100053.59;4315136;33;33591;-86
2021/04/19 09:33:09;;;;;;;;;;;;;;;19.97;39.87;100060.69;4303126;33;33525;-86
2021/04/19 09:35:48;;;;;;;;;;;;;;;20.02;40.11;100062.12;4315767;33;34117;-88
2021/04/19 09:38:31;;;;;;;;;;;;;;;19.77;39.70;100059.31;4314718;33;33006;-85
2021/04/19 09:40:59;;;;;;;;;;;;;;;19.91;39.95;100059.31;4305393;33;33466;-87
2021/04/19 09:44:05;;;;;;;;;;;;;;;;;;;;;
2021/04/19 09:47:29;;;;;;;;;;;;;;;20.16;39.22;100060.38;4296869;33;33183;-86
2021/04/19 09:50:03;;;;;;;;;;;;;;;19.75;39.64;100056.78;4314564;33;33749;-86
2021/04/19 09:52:33;;;;;;;;;;;;;;;19.98;39.52;100057.97;4314223;33;35342;-87
2021/04/19 09:55:02;;;;;;;;;;;;;;;20.04;39.83;100056.72;4302381;33;32048;-86
2021/04/19 09:57:30;;;;;;;;;;;;;;;20.18;39.20;100061.09;4302226;33;34097;-85
2021/04/19 09:59:57;;;;;;;;;;;;;;;19.84;39.78;100050.94;4302135;33;35123;-87
2021/04/19 10:11:26;;;;;;;;;;;;;;;20.73;38.26;100047.78;4189051;34;34839;-88
2021/04/19 11:03:37;;;;;;;;;;;;;;;19.85;38.06;100028.00;5311840;26;925164;-94
2021/04/19 11:06:16;;;;;;;;;;;;;;;19.76;38.49;100018.84;5329580;26;32968;-95
2021/04/19 11:09:08;;;;;;;;;;;;;;;20.09;37.51;100022.03;5336769;26;31808;-94
2021/04/19 11:12:24;;;;;;;;;;;;;;;20.26;37.68;100019.13;5279806;27;20747;-94
2021/04/19 11:15:11;;;;;;;;;;;;;;;19.28;39.39;100026.28;5272169;27;33065;-94
2021/04/19 11:18:00;;;;;;;;;;;;;;;19.65;39.00;100024.81;5272037;27;32851;-94
2021/04/19 11:20:48;;;;;;;;;;;;;;;19.92;38.60;100013.41;5271752;27;32031;-95
2021/04/19 11:33:46;;;;;;;;;;;;;;;19.93;38.18;100020.41;5194785;27;33327;-87
2021/04/19 11:41:28;;;;;;;;;;;;;;;19.00;38.86;100015.66;5024141;28;35731;-87
2021/04/19 11:44:43;;;;;;;;;;;;;;;19.40;38.06;100009.69;5017964;28;33169;-88
2021/04/19 11:48:21;;;;;;;;;;;;;;;;;;;;;
2021/04/19 11:51:53;;;;;;;;;;;;;;;18.71;39.58;100017.41;5093033;28;35445;-88
2021/04/19 11:54:41;;;;;;;;;;;;;;;19.05;40.29;100017.16;5087646;28;35181;-88
2021/04/19 11:57:40;;;;;;;;;;;;;;;;;;;;;
2021/04/19 12:08:13;;;;;;;;;;;;;;;19.11;40.10;100011.53;5093277;27;34690;-85
2021/04/19 12:10:50;;;;;;;;;;;;;;;19.53;39.15;100009.72;5149145;27;34915;-86
2021/04/19 12:13:20;;;;;;;;;;;;;;;19.59;38.67;100000.56;5166083;27;32932;-87
2021/04/19 12:15:53;;;;;;;;;;;;;;;19.52;38.77;100006.25;5139139;27;32645;-88
2021/04/19 12:19:43;;;;;;;;;;;;;;;20.15;36.99;100001.31;5255146;27;34353;-88
2021/04/19 12:26:20;;;;;;;;;;;;;;;19.70;37.28;100006.00;5244539;27;34302;-85
2021/04/19 12:29:39;;;;;;;;;;;;;;;20.29;37.07;100005.69;5189916;27;35361;-87
2021/04/19 12:32:41;;;;;;;;;;;;;;;19.98;37.29;99998.94;5198346;27;32638;-86
2021/04/19 12:35:48;;;;;;;;;;;;;;;20.02;37.42;99995.13;5197583;27;32838;-87
2021/04/19 12:42:06;;;;;;;;;;;;;;;;;;;;;
2021/04/19 12:45:31;;;;;;;;;;;;;;;20.04;35.99;99987.97;5145404;27;34709;-86
2021/04/19 12:48:30;;;;;;;;;;;;;;;19.73;36.42;99986.44;5149006;27;32636;-87
2021/04/19 12:51:47;;;;;;;;;;;;;;;20.45;35.59;99986.97;5145415;27;33282;-87
2021/04/19 12:54:58;;;;;;;;;;;;;;;20.64;35.22;99981.25;5116287;27;33237;-89
2021/04/19 13:43:42;;;;;;;;;;;;;;;19.71;35.80;99977.78;5138335;27;34277;-87
2021/04/19 13:56:09;;;;;;;;;;;;;;;19.57;36.91;99958.41;5172475;27;20026;-87
2021/04/19 14:02:42;;;;;;;;;;;;;;;20.05;34.76;99957.94;5160243;27;34455;-88
2021/04/19 14:09:01;;;;;;;;;;;;;;;20.73;33.54;99961.28;5194306;27;34889;-87
2021/04/19 14:28:19;;;;;;;;;;;;;;;20.71;33.13;99946.44;5186457;27;19969;-95
2021/04/19 14:30:49;;;;;;;;;;;;;;;20.03;34.31;99950.06;5246266;27;32005;-95
2021/04/19 14:33:17;;;;;;;;;;;;;;;19.60;35.00;99952.06;5245923;27;32872;-94
2021/04/19 14:35:44;;;;;;;;;;;;;;;18.27;38.35;99947.06;5247652;27;32765;-95
2021/04/19 14:38:14;;;;;;;;;;;;;;;18.87;36.54;99946.06;5248992;27;32597;-93
2021/04/19 14:40:44;;;;;;;;;;;;;;;19.39;35.25;99952.50;5246261;27;32989;-95
2021/04/19 14:43:14;;;;;;;;;;;;;;;18.92;36.29;99956.34;5250875;27;33116;-95
2021/04/19 14:45:42;;;;;;;;;;;;;;;19.77;34.46;99941.22;5250896;27;33735;-94
2021/04/19 14:48:11;;;;;;;;;;;;;;;20.23;33.51;99942.59;5240193;27;33652;-94
2021/04/19 14:50:39;;;;;;;;;;;;;;;19.20;35.40;99944.91;5238533;27;32417;-93
2021/04/19 14:53:09;;;;;;;;;;;;;;;18.93;35.27;99945.72;5238030;27;32974;-95
2021/04/19 14:55:36;;;;;;;;;;;;;;;18.55;36.40;99948.88;5238787;27;33716;-94
2021/04/19 14:58:06;;;;;;;;;;;;;;;18.60;36.57;99946.81;5238339;27;34057;-93
2021/04/19 15:00:34;;;;;;;;;;;;;;;18.72;36.57;99941.72;5237475;27;32945;-94
2021/04/19 15:03:06;;;;;;;;;;;;;;;19.03;35.98;99938.88;5238409;27;32597;-95
2021/04/19 15:05:35;;;;;;;;;;;;;;;18.85;36.52;99946.16;5237807;27;34478;-94
2021/04/19 15:08:10;;;;;;;;;;;;;;;19.25;34.73;99945.47;5240604;27;33576;-94
2021/04/19 15:10:37;;;;;;;;;;;;;;;19.08;35.23;99941.25;5237776;27;33082;-94
2021/04/19 15:13:05;;;;;;;;;;;;;;;18.99;35.68;99934.75;5237675;27;34118;-93
2021/04/19 15:15:33;;;;;;;;;;;;;;;18.93;36.19;99935.16;5237824;27;33146;-94
2021/04/19 15:18:01;;;;;;;;;;;;;;;18.74;36.39;99937.22;5237430;27;34125;-94
2021/04/19 15:20:29;;;;;;;;;;;;;;;19.22;35.75;99931.59;5237973;27;32044;-95
2021/04/19 15:22:58;;;;;;;;;;;;;;;18.79;35.88;99941.25;5238036;27;32815;-95
2021/04/19 15:25:27;;;;;;;;;;;;;;;19.07;35.42;99936.91;5237929;27;33272;-94
2021/04/19 15:27:54;;;;;;;;;;;;;;;19.65;34.57;99939.37;5237349;26;33358;-95
2021/04/19 15:30:31;;;;;;;;;;;;;;;19.67;34.69;99937.50;5239444;27;31834;-94
2021/04/19 15:32:58;;;;;;;;;;;;;;;19.17;35.24;99931.87;5255217;27;33966;-94
2021/04/19 15:35:31;;;;;;;;;;;;;;;19.39;34.81;99933.16;5238056;27;32912;-94
2021/04/19 15:37:59;;;;;;;;;;;;;;;19.87;34.00;99932.72;5237487;27;32629;-94
2021/04/19 15:40:28;;;;;;;;;;;;;;;19.98;33.38;99931.06;5237532;27;33119;-94
2021/04/19 15:42:56;;;;;;;;;;;;;;;19.17;34.96;99934.53;5238056;27;33009;-94
2021/04/19 15:45:23;;;;;;;;;;;;;;;19.06;35.13;99935.22;5237753;27;33292;-95
2021/04/19 15:47:52;;;;;;;;;;;;;;;18.62;35.97;99933.53;5220219;27;32762;-95
2021/04/19 15:50:19;;;;;;;;;;;;;;;19.04;35.26;99934.47;5237467;27;32038;-95
2021/04/19 15:52:47;;;;;;;;;;;;;;;19.88;33.84;99934.38;5237179;27;33946;-95
2021/04/19 15:55:15;;;;;;;;;;;;;;;20.10;33.19;99928.50;5237411;27;33573;-95
2021/04/19 15:57:42;;;;;;;;;;;;;;;19.33;34.93;99929.97;5237859;27;32434;-94
2021/04/19 16:00:10;;;;;;;;;;;;;;;18.97;35.67;99928.75;5238205;27;31748;-94
2021/04/19 16:02:38;;;;;;;;;;;;;;;19.23;34.95;99928.88;5237951;27;34521;-94
2021/04/19 16:05:08;;;;;;;;;;;;;;;18.72;36.21;99932.03;5238350;27;32987;-94
2021/04/19 16:07:35;;;;;;;;;;;;;;;19.85;33.59;99924.91;5255026;27;32779;-94
2021/04/19 16:10:10;;;;;;;;;;;;;;;18.97;34.92;99922.59;5238966;27;33176;-96
2021/04/19 16:12:39;;;;;;;;;;;;;;;18.70;35.93;99926.81;5238033;27;32630;-94
2021/04/19 16:15:09;;;;;;;;;;;;;;;18.51;35.87;99932.37;5238234;27;32745;-94
2021/04/19 16:17:37;;;;;;;;;;;;;;;19.14;34.92;99926.81;5238451;27;32852;-94
2021/04/19 16:20:05;;;;;;;;;;;;;;;19.36;34.52;99934.22;5238657;27;32142;-94
2021/04/19 16:22:35;;;;;;;;;;;;;;;19.78;33.65;99923.56;5239236;27;33177;-94
2021/04/19 16:25:03;;;;;;;;;;;;;;;19.45;34.17;99922.19;5238147;27;33408;-94
2021/04/19 16:27:31;;;;;;;;;;;;;;;19.87;33.46;99914.22;5220596;27;32790;-94
2021/04/19 16:30:00;;;;;;;;;;;;;;;20.06;32.88;99917.28;5237999;27;32213;-94
2021/04/19 16:32:28;;;;;;;;;;;;;;;19.97;33.14;99910.84;5237813;27;32782;-95